Time;durP1;ratioP1;P1;durP2;ratioP2;P2;SDS_P1;SDS_P2;PMS_P1;PMS_P2;Temp;Humidity;BMP_temperature;BMP_pressure;BME280_temperature;BME280_humidity;BME280_pressure;Samples;Min_cycle;Max_cycle;Signal;HPM_P1;HPM_P2
2021/04/11 00:00:28;;;;;;;2.03;1.83;;;;;;;;;;4949566;28;20235;-63
2021/04/11 00:02:54;;;;;;;1.93;1.73;;;;;;;;;;4950488;28;20210;-62
2021/04/11 00:05:23;;;;;;;4.20;2.07;;;;;;;;;;4951992;28;20196;-63
2021/04/11 00:07:50;;;;;;;2.10;1.83;;;;;;;;;;4949118;28;20187;-63
2021/04/11 00:10:21;;;;;;;2.60;1.97;;;;;;;;;;4946011;28;20321;-63
2021/04/11 00:12:47;;;;;;;3.25;1.90;;;;;;;;;;4949700;28;20662;-63
2021/04/11 00:15:14;;;;;;;2.15;1.65;;;;;;;;;;4947452;29;20190;-63
2021/04/11 00:17:40;;;;;;;2.70;1.70;;;;;;;;;;4945344;28;20629;-63
2021/04/11 00:20:07;;;;;;;3.40;1.80;;;;;;;;;;4948604;28;20222;-64
2021/04/11 00:22:33;;;;;;;2.40;1.85;;;;;;;;;;4946418;29;20188;-61
2021/04/11 00:24:59;;;;;;;2.13;1.80;;;;;;;;;;4947418;29;20188;-63
2021/04/11 00:27:25;;;;;;;2.60;1.60;;;;;;;;;;4949810;29;20238;-62
2021/04/11 00:29:51;;;;;;;2.13;1.92;;;;;;;;;;4950462;28;20198;-65
2021/04/11 00:32:17;;;;;;;6.38;2.22;;;;;;;;;;4950487;28;20176;-63
2021/04/11 00:34:43;;;;;;;3.22;1.75;;;;;;;;;;4951849;28;20194;-64
2021/04/11 00:37:09;;;;;;;2.40;1.70;;;;;;;;;;4952791;28;20734;-63
2021/04/11 00:39:36;;;;;;;3.57;1.70;;;;;;;;;;4952058;28;20706;-63
2021/04/11 00:42:05;;;;;;;2.33;1.80;;;;;;;;;;4942474;28;20203;-64
2021/04/11 00:44:32;;;;;;;1.70;1.60;;;;;;;;;;4946469;28;20656;-64
2021/04/11 00:46:59;;;;;;;2.07;1.60;;;;;;;;;;4951288;28;20178;-65
2021/04/11 00:49:29;;;;;;;1.77;1.67;;;;;;;;;;4945436;28;20195;-64
2021/04/11 00:51:55;;;;;;;2.03;1.80;;;;;;;;;;4944449;28;20242;-61
2021/04/11 00:54:21;;;;;;;1.77;1.60;;;;;;;;;;4947977;28;20198;-62
2021/04/11 00:56:48;;;;;;;2.57;1.50;;;;;;;;;;4951611;29;20237;-64
2021/04/11 00:59:15;;;;;;;3.77;2.00;;;;;;;;;;4949176;28;20195;-63
2021/04/11 01:01:41;;;;;;;4.17;1.80;;;;;;;;;;4949092;28;20302;-63
2021/04/11 01:04:08;;;;;;;2.90;1.87;;;;;;;;;;4948827;28;20277;-63
2021/04/11 01:06:36;;;;;;;1.80;1.70;;;;;;;;;;4950267;28;20218;-63
2021/04/11 01:09:09;;;;;;;2.77;1.70;;;;;;;;;;4954568;28;20204;-63
2021/04/11 01:11:35;;;;;;;1.83;1.63;;;;;;;;;;4968554;28;20202;-63
2021/04/11 01:14:02;;;;;;;1.97;1.87;;;;;;;;;;4948091;28;20187;-62
2021/04/11 01:16:29;;;;;;;2.43;1.90;;;;;;;;;;4950220;28;20197;-63
2021/04/11 01:18:55;;;;;;;2.57;1.70;;;;;;;;;;4949264;28;20186;-62
2021/04/11 01:21:21;;;;;;;3.43;2.20;;;;;;;;;;4950104;28;20217;-63
2021/04/11 01:23:57;;;;;;;3.07;2.07;;;;;;;;;;4949849;28;20207;-63
2021/04/11 01:26:23;;;;;;;2.77;1.87;;;;;;;;;;4949673;29;20728;-64
2021/04/11 01:28:50;;;;;;;2.00;1.80;;;;;;;;;;4948366;28;20214;-64
2021/04/11 01:31:16;;;;;;;2.63;1.73;;;;;;;;;;4948955;28;20265;-63
2021/04/11 01:33:47;;;;;;;1.70;1.60;;;;;;;;;;4948668;28;20269;-63
2021/04/11 01:36:15;;;;;;;3.07;1.90;;;;;;;;;;4949184;28;20671;-64
2021/04/11 01:38:42;;;;;;;1.87;1.77;;;;;;;;;;4949343;29;20269;-63
2021/04/11 01:41:08;;;;;;;2.20;2.00;;;;;;;;;;4948399;28;20206;-64
2021/04/11 01:43:37;;;;;;;3.27;2.03;;;;;;;;;;4948729;28;20289;-64
2021/04/11 01:46:03;;;;;;;1.90;1.80;;;;;;;;;;4950453;28;20269;-63
2021/04/11 01:48:30;;;;;;;1.90;1.80;;;;;;;;;;4950177;28;20190;-62
2021/04/11 01:50:57;;;;;;;3.83;2.00;;;;;;;;;;4952872;28;20209;-63
2021/04/11 01:53:24;;;;;;;2.03;1.93;;;;;;;;;;4963958;28;20190;-63
2021/04/11 01:55:51;;;;;;;2.87;2.20;;;;;;;;;;4955968;28;20772;-63
2021/04/11 01:58:17;;;;;;;2.00;1.90;;;;;;;;;;4950683;29;20201;-63
2021/04/11 02:00:46;;;;;;;2.77;1.93;;;;;;;;;;4963408;28;20285;-62
2021/04/11 02:03:19;;;;;;;3.00;1.90;;;;;;;;;;4951410;29;20286;-62
2021/04/11 02:05:46;;;;;;;2.43;2.03;;;;;;;;;;4952603;28;20187;-64
2021/04/11 02:08:16;;;;;;;2.87;2.30;;;;;;;;;;4949162;28;20651;-60
2021/04/11 02:10:49;;;;;;;2.63;2.30;;;;;;;;;;4950347;28;20254;-63
2021/04/11 02:13:15;;;;;;;2.87;1.93;;;;;;;;;;4950475;28;20191;-62
2021/04/11 02:15:48;;;;;;;3.27;2.03;;;;;;;;;;4950170;29;20266;-62
2021/04/11 02:18:14;;;;;;;2.17;2.07;;;;;;;;;;4949090;28;20253;-62
2021/04/11 02:20:43;;;;;;;4.50;1.93;;;;;;;;;;4948561;29;20246;-62
2021/04/11 02:23:10;;;;;;;2.77;2.40;;;;;;;;;;4947877;28;20258;-61
2021/04/11 02:25:40;;;;;;;2.13;2.00;;;;;;;;;;4943575;28;20227;-63
2021/04/11 02:28:06;;;;;;;2.20;2.00;;;;;;;;;;4947250;28;20194;-63
2021/04/11 02:30:32;;;;;;;2.87;2.60;;;;;;;;;;4949293;28;20293;-63
2021/04/11 02:32:58;;;;;;;2.63;2.20;;;;;;;;;;4949291;28;20557;-63
2021/04/11 02:35:25;;;;;;;1.77;1.67;;;;;;;;;;4944262;28;20680;-64
2021/04/11 02:37:57;;;;;;;2.60;2.40;;;;;;;;;;4950350;28;20210;-64
2021/04/11 02:40:26;;;;;;;2.30;2.03;;;;;;;;;;4950267;28;20219;-61
2021/04/11 02:42:52;;;;;;;2.00;1.83;;;;;;;;;;4946724;29;20219;-62
2021/04/11 02:45:24;;;;;;;2.63;1.87;;;;;;;;;;4950893;28;20565;-62
2021/04/11 02:47:52;;;;;;;2.20;2.00;;;;;;;;;;4948812;28;20239;-62
2021/04/11 02:50:18;;;;;;;2.70;2.17;;;;;;;;;;4950187;28;20225;-63
2021/04/11 02:52:47;;;;;;;2.70;1.87;;;;;;;;;;4949481;28;20618;-62
2021/04/11 02:55:14;;;;;;;2.90;1.90;;;;;;;;;;4947222;29;20194;-61
2021/04/11 02:57:40;;;;;;;1.90;1.80;;;;;;;;;;4950241;28;20253;-63
2021/04/11 03:00:10;;;;;;;3.30;2.33;;;;;;;;;;4950585;28;20254;-61
2021/04/11 03:02:35;;;;;;;2.40;1.90;;;;;;;;;;4946739;29;20287;-63
2021/04/11 03:05:02;;;;;;;3.50;1.97;;;;;;;;;;4944565;28;20627;-63
2021/04/11 03:07:31;;;;;;;2.80;2.10;;;;;;;;;;4947222;28;20202;-62
2021/04/11 03:10:10;;;;;;;3.60;2.00;;;;;;;;;;4958043;28;20201;-62
2021/04/11 03:12:38;;;;;;;3.33;2.17;;;;;;;;;;4944906;29;20179;-63
2021/04/11 03:15:04;;;;;;;2.73;2.10;;;;;;;;;;4945596;28;20249;-63
2021/04/11 03:17:30;;;;;;;2.50;2.30;;;;;;;;;;4950059;28;20186;-63
2021/04/11 03:19:59;;;;;;;2.50;2.30;;;;;;;;;;4946067;28;20314;-62
2021/04/11 03:22:25;;;;;;;3.20;2.30;;;;;;;;;;4949420;28;20569;-63
2021/04/11 03:24:51;;;;;;;2.53;2.23;;;;;;;;;;4948548;28;20199;-63
2021/04/11 03:27:21;;;;;;;3.77;2.80;;;;;;;;;;4948557;28;20194;-62
2021/04/11 03:29:54;;;;;;;3.73;2.90;;;;;;;;;;4947426;29;20652;-64
2021/04/11 03:32:36;;;;;;;3.47;2.90;;;;;;;;;;4946648;28;20214;-64
2021/04/11 03:35:03;;;;;;;3.80;3.30;;;;;;;;;;4949392;28;20183;-63
2021/04/11 03:37:31;;;;;;;4.00;3.57;;;;;;;;;;4947725;28;20226;-63
2021/04/11 03:39:58;;;;;;;3.53;3.23;;;;;;;;;;4949017;28;20674;-63
2021/04/11 03:42:26;;;;;;;4.07;3.10;;;;;;;;;;4949687;28;20187;-62
2021/04/11 03:44:58;;;;;;;4.93;3.43;;;;;;;;;;4947830;28;20191;-62
2021/04/11 03:47:37;;;;;;;4.33;3.43;;;;;;;;;;4946391;28;20270;-62
2021/04/11 03:50:04;;;;;;;3.63;3.03;;;;;;;;;;4946093;29;20187;-64
2021/04/11 03:52:37;;;;;;;4.93;2.90;;;;;;;;;;4946170;28;20238;-64
2021/04/11 03:55:06;;;;;;;3.27;2.90;;;;;;;;;;4947947;28;20180;-63
2021/04/11 03:57:47;;;;;;;3.57;2.50;;;;;;;;;;4948728;28;20281;-63
2021/04/11 04:00:14;;;;;;;5.67;2.73;;;;;;;;;;4951590;28;20213;-63
2021/04/11 04:02:42;;;;;;;3.17;2.27;;;;;;;;;;4947555;28;20188;-61
2021/04/11 04:05:09;;;;;;;3.80;1.90;;;;;;;;;;4953881;28;20183;-62
2021/04/11 04:07:45;;;;;;;2.80;2.00;;;;;;;;;;4952374;28;20222;-64
2021/04/11 04:10:12;;;;;;;2.60;2.40;;;;;;;;;;4949991;28;20744;-62
2021/04/11 04:12:44;;;;;;;2.40;1.90;;;;;;;;;;4952099;28;20185;-62
2021/04/11 04:15:19;;;;;;;2.40;2.20;;;;;;;;;;4949775;28;20187;-63
2021/04/11 04:17:54;;;;;;;2.37;2.07;;;;;;;;;;4950229;29;20218;-62
2021/04/11 04:20:27;;;;;;;4.63;2.27;;;;;;;;;;4948199;28;20209;-63
2021/04/11 04:23:00;;;;;;;2.33;2.10;;;;;;;;;;4943331;28;20678;-63
2021/04/11 04:25:42;;;;;;;3.63;2.50;;;;;;;;;;4949780;28;20184;-62
2021/04/11 04:28:14;;;;;;;4.27;2.10;;;;;;;;;;4952603;29;20190;-62
2021/04/11 04:30:40;;;;;;;3.43;2.23;;;;;;;;;;4949348;28;20270;-63
2021/04/11 04:33:21;;;;;;;3.87;2.27;;;;;;;;;;4949672;29;20186;-63
2021/04/11 04:35:53;;;;;;;2.60;2.20;;;;;;;;;;4950213;28;20191;-62
2021/04/11 04:38:19;;;;;;;3.47;2.30;;;;;;;;;;4949197;28;20195;-63
2021/04/11 04:41:03;;;;;;;2.60;2.40;;;;;;;;;;4957488;28;20211;-63
2021/04/11 04:43:43;;;;;;;2.73;2.17;;;;;;;;;;4946106;29;20690;-62
2021/04/11 04:46:09;;;;;;;2.50;2.00;;;;;;;;;;4950172;28;20249;-64
2021/04/11 04:48:37;;;;;;;2.53;2.13;;;;;;;;;;4946399;28;20737;-62
2021/04/11 04:51:22;;;;;;;3.60;3.20;;;;;;;;;;4947937;28;20222;-61
2021/04/11 04:54:06;;;;;;;4.03;3.63;;;;;;;;;;4949718;28;20195;-62
2021/04/11 04:56:44;;;;;;;5.47;3.83;;;;;;;;;;4952857;28;20190;-62
2021/04/11 04:59:19;;;;;;;6.60;3.67;;;;;;;;;;4972851;28;20190;-63
2021/04/11 05:01:51;;;;;;;5.80;4.23;;;;;;;;;;4969920;29;20810;-62
2021/04/11 05:04:27;;;;;;;4.33;3.00;;;;;;;;;;4948033;28;20546;-63
2021/04/11 05:06:56;;;;;;;3.27;2.43;;;;;;;;;;4966950;28;20195;-62
2021/04/11 05:09:37;;;;;;;3.90;2.40;;;;;;;;;;4957390;28;20183;-63
2021/04/11 05:12:07;;;;;;;6.93;3.37;;;;;;;;;;4947589;28;20537;-63
2021/04/11 05:14:41;;;;;;;4.90;3.33;;;;;;;;;;4947930;28;20188;-62
2021/04/11 05:17:11;;;;;;;5.93;3.50;;;;;;;;;;4949264;28;20269;-62
2021/04/11 05:19:42;;;;;;;5.17;4.20;;;;;;;;;;4948953;29;20191;-63
2021/04/11 05:22:13;;;;;;;6.33;5.40;;;;;;;;;;4947684;28;20210;-63
2021/04/11 05:24:41;;;;;;;6.87;5.40;;;;;;;;;;4949921;28;20211;-61
2021/04/11 05:27:10;;;;;;;8.13;6.17;;;;;;;;;;4947069;28;20191;-63
2021/04/11 05:29:42;;;;;;;6.77;5.80;;;;;;;;;;4948042;29;20266;-62
2021/04/11 05:32:10;;;;;;;6.40;5.77;;;;;;;;;;4945169;28;20203;-60
2021/04/11 05:34:36;;;;;;;11.70;5.47;;;;;;;;;;4949500;28;20206;-64
2021/04/11 05:37:05;;;;;;;8.50;5.13;;;;;;;;;;4952841;28;20575;-64
2021/04/11 05:39:46;;;;;;;7.30;5.13;;;;;;;;;;4947548;28;20245;-61
2021/04/11 05:42:15;;;;;;;7.93;5.30;;;;;;;;;;4950041;28;20739;-62
2021/04/11 05:44:42;;;;;;;8.87;5.23;;;;;;;;;;4940856;28;20212;-64
2021/04/11 05:47:20;;;;;;;8.90;5.67;;;;;;;;;;4946539;29;20211;-63
2021/04/11 05:49:46;;;;;;;5.67;4.93;;;;;;;;;;4950274;28;20226;-63
2021/04/11 05:52:15;;;;;;;7.17;5.13;;;;;;;;;;4951480;28;20229;-63
2021/04/11 05:54:46;;;;;;;7.23;4.80;;;;;;;;;;4953004;28;20277;-63
2021/04/11 05:57:21;;;;;;;5.53;4.93;;;;;;;;;;4944220;28;20198;-64
2021/04/11 05:59:52;;;;;;;7.60;6.00;;;;;;;;;;4946949;29;20622;-63
2021/04/11 06:02:53;;;;;;;6.07;5.20;;;;;;;;;;4948333;29;20216;-63
2021/04/11 06:05:19;;;;;;;7.73;4.77;;;;;;;;;;4944552;28;20219;-63
2021/04/11 06:08:08;;;;;;;6.43;5.23;;;;;;;;;;4943371;28;20607;-64
2021/04/11 06:10:36;;;;;;;7.23;5.00;;;;;;;;;;4918819;28;20238;-64
2021/04/11 06:13:05;;;;;;;6.60;5.10;;;;;;;;;;4948047;28;20231;-63
2021/04/11 06:15:33;;;;;;;8.00;5.37;;;;;;;;;;4941889;28;20198;-63
2021/04/11 06:18:00;;;;;;;6.40;5.07;;;;;;;;;;4945303;29;20202;-63
2021/04/11 06:20:27;;;;;;;6.13;4.73;;;;;;;;;;4928325;29;20215;-61
2021/04/11 06:23:02;;;;;;;5.67;5.07;;;;;;;;;;4944139;28;20218;-62
2021/04/11 06:25:46;;;;;;;5.13;4.63;;;;;;;;;;4944844;29;20807;-62
2021/04/11 06:28:22;;;;;;;9.38;6.03;;;;;;;;;;4942773;29;20282;-61
2021/04/11 06:30:59;;;;;;;5.82;5.20;;;;;;;;;;4943978;28;20641;-63
2021/04/11 06:33:35;;;;;;;6.30;5.70;;;;;;;;;;4946521;29;20210;-63
2021/04/11 06:36:04;;;;;;;6.38;5.00;;;;;;;;;;4943664;28;20692;-63
2021/04/11 06:38:33;;;;;;;5.72;4.88;;;;;;;;;;4945766;29;20203;-63
2021/04/11 06:41:18;;;;;;;6.18;5.53;;;;;;;;;;4947152;28;20732;-63
2021/04/11 06:44:03;;;;;;;5.78;5.22;;;;;;;;;;4946181;28;20218;-63
2021/04/11 06:46:34;;;;;;;6.70;5.30;;;;;;;;;;4947070;28;20191;-62
2021/04/11 06:49:04;;;;;;;6.03;4.50;;;;;;;;;;4948995;28;20287;-62
2021/04/11 06:51:32;;;;;;;15.23;11.85;;;;;;;;;;4949481;28;20202;-62
2021/04/11 06:54:17;;;;;;;6.68;6.00;;;;;;;;;;4948628;29;20209;-63
2021/04/11 06:56:52;;;;;;;5.65;5.07;;;;;;;;;;4948753;28;20662;-62
2021/04/11 06:59:19;;;;;;;5.68;4.55;;;;;;;;;;4945099;28;20748;-61
2021/04/11 07:02:00;;;;;;;4.65;4.10;;;;;;;;;;4951803;28;20234;-63
2021/04/11 07:04:35;;;;;;;9.48;3.90;;;;;;;;;;4947087;28;20196;-63
2021/04/11 07:07:19;;;;;;;4.50;4.07;;;;;;;;;;4946413;28;20178;-64
2021/04/11 07:10:04;;;;;;;4.25;3.83;;;;;;;;;;4946033;29;20221;-66
2021/04/11 07:12:49;;;;;;;3.00;2.75;;;;;;;;;;4944379;28;20183;-64
2021/04/11 07:15:35;;;;;;;3.05;2.28;;;;;;;;;;4944346;29;20184;-63
2021/04/11 07:18:03;;;;;;;2.63;2.30;;;;;;;;;;4947422;28;20190;-65
2021/04/11 07:20:35;;;;;;;3.08;2.45;;;;;;;;;;4945805;28;20408;-64
2021/04/11 07:23:12;;;;;;;4.03;3.05;;;;;;;;;;4944803;28;20213;-65
2021/04/11 07:25:56;;;;;;;3.70;2.58;;;;;;;;;;4938407;28;20184;-65
2021/04/11 07:28:25;;;;;;;4.50;3.60;;;;;;;;;;4948598;28;20202;-65
2021/04/11 07:30:55;;;;;;;2.83;2.33;;;;;;;;;;4948796;28;20220;-65
2021/04/11 07:33:40;;;;;;;3.78;2.45;;;;;;;;;;4944596;28;20182;-65
2021/04/11 07:36:08;;;;;;;4.38;3.63;;;;;;;;;;4951499;28;20693;-66
2021/04/11 07:38:51;;;;;;;3.50;3.20;;;;;;;;;;4951927;28;20258;-64
2021/04/11 07:41:25;;;;;;;5.70;3.10;;;;;;;;;;4946126;28;20206;-65
2021/04/11 07:44:10;;;;;;;4.75;2.50;;;;;;;;;;4951426;28;20625;-65
2021/04/11 07:46:39;;;;;;;4.30;3.35;;;;;;;;;;4948684;28;20194;-63
2021/04/11 07:49:17;;;;;;;6.60;2.38;;;;;;;;;;4950896;28;21085;-65
2021/04/11 07:51:43;;;;;;;3.58;2.63;;;;;;;;;;4947079;28;20273;-62
2021/04/11 07:54:28;;;;;;;5.00;2.90;;;;;;;;;;4949780;28;20682;-66
2021/04/11 07:57:12;;;;;;;5.22;2.85;;;;;;;;;;4950951;29;20183;-65
2021/04/11 07:59:51;;;;;;;3.80;2.45;;;;;;;;;;4947751;28;20202;-65
2021/04/11 08:02:23;;;;;;;2.80;2.42;;;;;;;;;;4945667;29;20203;-66
2021/04/11 08:04:52;;;;;;;5.28;2.10;;;;;;;;;;4955411;28;20226;-66
2021/04/11 08:07:18;;;;;;;2.78;2.40;;;;;;;;;;4968419;28;20178;-65
2021/04/11 08:09:44;;;;;;;3.63;2.70;;;;;;;;;;4960906;28;20199;-65
2021/04/11 08:12:24;;;;;;;3.65;2.55;;;;;;;;;;4951807;29;20210;-65
2021/04/11 08:15:09;;;;;;;12.02;2.15;;;;;;;;;;4961685;28;20201;-64
2021/04/11 08:17:40;;;;;;;4.47;2.60;;;;;;;;;;4962067;28;20289;-66
2021/04/11 08:20:24;;;;;;;8.10;2.35;;;;;;;;;;4952683;28;20179;-63
2021/04/11 08:23:09;;;;;;;6.03;4.93;;;;;;;;;;4955782;28;20210;-66
2021/04/11 08:25:35;;;;;;;2.00;1.83;;;;;;;;;;4960944;28;20191;-65
2021/04/11 08:28:13;;;;;;;3.28;1.60;;;;;;;;;;4959875;28;20190;-65
2021/04/11 08:30:58;;;;;;;5.70;3.30;;;;;;;;;;4954841;28;20198;-64
2021/04/11 08:33:42;;;;;;;3.20;1.85;;;;;;;;;;4951043;28;20183;-65
2021/04/11 08:36:27;;;;;;;1.92;1.42;;;;;;;;;;4955879;28;20186;-65
2021/04/11 08:38:53;;;;;;;5.10;1.90;;;;;;;;;;4944646;28;20893;-65
2021/04/11 08:41:31;;;;;;;3.72;1.83;;;;;;;;;;4957315;28;20210;-65
2021/04/11 08:44:16;;;;;;;5.25;2.38;;;;;;;;;;4960574;28;20205;-67
2021/04/11 08:46:49;;;;;;;2.90;1.85;;;;;;;;;;4957297;28;20691;-65
2021/04/11 08:49:20;;;;;;;2.38;1.92;;;;;;;;;;4963487;28;20191;-65
2021/04/11 08:51:49;;;;;;;2.72;1.90;;;;;;;;;;4944753;29;20206;-65
2021/04/11 08:54:34;;;;;;;2.72;2.10;;;;;;;;;;4946307;28;20186;-65
2021/04/11 08:57:06;;;;;;;4.80;2.30;;;;;;;;;;4947351;28;20200;-64
2021/04/11 08:59:45;;;;;;;3.88;2.22;;;;;;;;;;4951114;28;20231;-65
2021/04/11 09:02:35;;;;;;;3.70;2.30;;;;;;;;;;4950495;28;20682;-64
2021/04/11 09:05:00;;;;;;;2.55;2.35;;;;;;;;;;4945151;28;20222;-65
2021/04/11 09:07:29;;;;;;;4.43;2.78;;;;;;;;;;4951623;28;20187;-63
2021/04/11 09:10:07;;;;;;;3.28;2.05;;;;;;;;;;4943633;28;20263;-64
2021/04/11 09:12:35;;;;;;;3.33;2.20;;;;;;;;;;4950976;28;20210;-63
2021/04/11 09:15:15;;;;;;;4.72;2.45;;;;;;;;;;4948713;29;20552;-64
2021/04/11 09:18:11;;;;;;;4.72;2.30;;;;;;;;;;4942215;29;20210;-65
2021/04/11 09:20:42;;;;;;;2.97;2.65;;;;;;;;;;4947518;29;20222;-65
2021/04/11 09:23:27;;;;;;;2.80;2.03;;;;;;;;;;4949752;28;20706;-64
2021/04/11 09:25:57;;;;;;;3.58;2.08;;;;;;;;;;4949087;29;20195;-63
2021/04/11 09:28:42;;;;;;;4.80;2.00;;;;;;;;;;4946214;28;20654;-63
2021/04/11 09:31:20;;;;;;;2.70;2.00;;;;;;;;;;4946508;29;20234;-65
2021/04/11 09:33:46;;;;;;;2.03;1.83;;;;;;;;;;4944774;28;20195;-64
2021/04/11 09:36:18;;;;;;;3.53;1.60;;;;;;;;;;4948869;28;20241;-64
2021/04/11 09:38:53;;;;;;;3.50;2.05;;;;;;;;;;4950544;28;20222;-62
2021/04/11 09:41:24;;;;;;;2.75;1.80;;;;;;;;;;4945880;28;20202;-64
2021/04/11 09:43:50;;;;;;;4.10;1.75;;;;;;;;;;4944405;28;20737;-65
2021/04/11 09:46:35;;;;;;;3.80;1.80;;;;;;;;;;4948423;29;20210;-65
2021/04/11 09:49:02;;;;;;;2.15;1.50;;;;;;;;;;4945159;28;20225;-65
2021/04/11 09:51:47;;;;;;;3.50;1.70;;;;;;;;;;4931504;29;20770;-64
2021/04/11 09:54:22;;;;;;;3.15;1.73;;;;;;;;;;4945054;29;20230;-65
2021/04/11 09:57:00;;;;;;;2.58;1.63;;;;;;;;;;4945343;29;20254;-66
2021/04/11 09:59:45;;;;;;;3.05;1.48;;;;;;;;;;4949032;29;21097;-63
2021/04/11 10:02:29;;;;;;;2.40;1.52;;;;;;;;;;4953754;28;20768;-65
2021/04/11 10:05:01;;;;;;;3.83;1.48;;;;;;;;;;4951525;28;20221;-64
2021/04/11 10:07:27;;;;;;;3.38;2.00;;;;;;;;;;4956237;28;20210;-65
2021/04/11 10:09:58;;;;;;;4.75;1.60;;;;;;;;;;4954614;28;20677;-66
2021/04/11 10:12:24;;;;;;;2.60;1.40;;;;;;;;;;4954611;28;20189;-68
2021/04/11 10:14:55;;;;;;;4.78;2.50;;;;;;;;;;4953883;28;20195;-64
2021/04/11 10:17:21;;;;;;;2.33;1.45;;;;;;;;;;4954763;28;20186;-63
2021/04/11 10:20:05;;;;;;;2.33;1.50;;;;;;;;;;4950880;28;20193;-64
2021/04/11 10:22:42;;;;;;;2.80;1.48;;;;;;;;;;4954209;28;20202;-66
2021/04/11 10:25:08;;;;;;;2.33;1.20;;;;;;;;;;4948752;28;20195;-65
2021/04/11 10:27:34;;;;;;;1.27;1.17;;;;;;;;;;4955625;28;20716;-64
2021/04/11 10:30:01;;;;;;;3.80;1.70;;;;;;;;;;4954633;28;20562;-64
2021/04/11 10:32:30;;;;;;;4.38;2.35;;;;;;;;;;4952486;28;20174;-64
2021/04/11 10:35:05;;;;;;;3.42;1.85;;;;;;;;;;4951994;28;20273;-64
2021/04/11 10:37:45;;;;;;;3.78;1.45;;;;;;;;;;4945890;28;20186;-67
2021/04/11 10:40:11;;;;;;;4.57;1.70;;;;;;;;;;4945677;28;20198;-65
2021/04/11 10:42:56;;;;;;;1.83;1.55;;;;;;;;;;4956683;28;20250;-66
2021/04/11 10:45:45;;;;;;;4.13;1.25;;;;;;;;;;4954062;28;20655;-64
2021/04/11 10:48:17;;;;;;;4.22;1.67;;;;;;;;;;4955285;28;20194;-65
2021/04/11 10:51:01;;;;;;;4.85;1.35;;;;;;;;;;4954307;28;20227;-63
2021/04/11 10:53:56;;;;;;;3.33;1.77;;;;;;;;;;4951560;28;20269;-64
2021/04/11 10:56:21;;;;;;;1.50;1.00;;;;;;;;;;4934634;28;20337;-62
2021/04/11 10:59:06;;;;;;;2.35;1.10;;;;;;;;;;4943101;28;20251;-64
2021/04/11 11:01:40;;;;;;;3.33;1.50;;;;;;;;;;4945364;28;20346;-64
2021/04/11 11:04:24;;;;;;;2.42;1.55;;;;;;;;;;4945338;28;20214;-64
2021/04/11 11:07:09;;;;;;;3.05;1.70;;;;;;;;;;4947439;28;20179;-64
2021/04/11 11:09:39;;;;;;;2.80;1.63;;;;;;;;;;4942318;28;20195;-65
2021/04/11 11:12:08;;;;;;;2.40;1.77;;;;;;;;;;4946325;28;20301;-63
2021/04/11 11:14:54;;;;;;;1.65;1.27;;;;;;;;;;4946401;28;20196;-65
2021/04/11 11:17:40;;;;;;;1.50;1.35;;;;;;;;;;4958243;28;20697;-63
2021/04/11 11:20:13;;;;;;;5.45;2.17;;;;;;;;;;4956934;28;20183;-65
2021/04/11 11:22:58;;;;;;;6.82;3.25;;;;;;;;;;4959551;28;20266;-64
2021/04/11 11:25:45;;;;;;;4.15;1.55;;;;;;;;;;4958559;28;20659;-63
2021/04/11 11:28:17;;;;;;;1.65;1.33;;;;;;;;;;4947740;28;20190;-65
2021/04/11 11:31:00;;;;;;;5.03;2.33;;;;;;;;;;4943091;28;20230;-65
2021/04/11 11:33:26;;;;;;;3.58;1.45;;;;;;;;;;4946086;28;20187;-64
2021/04/11 11:36:01;;;;;;;3.42;1.70;;;;;;;;;;4945357;28;20572;-67
2021/04/11 11:38:31;;;;;;;4.50;1.92;;;;;;;;;;4952672;28;20209;-64
2021/04/11 11:41:03;;;;;;;2.28;1.60;;;;;;;;;;4955835;28;20226;-63
2021/04/11 11:43:31;;;;;;;2.13;1.58;;;;;;;;;;4957148;28;20198;-64
2021/04/11 11:46:19;;;;;;;3.85;1.73;;;;;;;;;;4947311;28;20233;-65
2021/04/11 11:48:46;;;;;;;2.08;1.20;;;;;;;;;;4946102;28;20185;-63
2021/04/11 11:51:14;;;;;;;3.05;1.33;;;;;;;;;;4947761;28;20246;-64
2021/04/11 11:53:59;;;;;;;2.47;1.23;;;;;;;;;;4944524;28;20187;-64
2021/04/11 11:56:35;;;;;;;1.80;1.10;;;;;;;;;;4947130;29;20187;-65
2021/04/11 11:59:07;;;;;;;2.58;1.00;;;;;;;;;;4945532;28;20817;-65
2021/04/11 12:01:45;;;;;;;2.45;1.13;;;;;;;;;;4942243;28;20215;-61
2021/04/11 12:04:19;;;;;;;1.83;1.00;;;;;;;;;;4945670;28;20217;-63
2021/04/11 12:06:49;;;;;;;1.92;1.30;;;;;;;;;;4941927;28;20653;-64
2021/04/11 12:09:33;;;;;;;5.38;1.63;;;;;;;;;;4946037;28;20198;-66
2021/04/11 12:11:59;;;;;;;1.75;1.00;;;;;;;;;;4943121;28;20203;-67
2021/04/11 12:14:29;;;;;;;1.50;1.00;;;;;;;;;;4947121;28;20198;-66
2021/04/11 12:16:58;;;;;;;2.85;1.42;;;;;;;;;;4944338;28;20198;-67
2021/04/11 12:19:38;;;;;;;3.25;1.38;;;;;;;;;;4944589;28;20893;-67
2021/04/11 12:22:06;;;;;;;3.17;1.30;;;;;;;;;;4948360;28;20204;-66
2021/04/11 12:24:34;;;;;;;1.15;1.05;;;;;;;;;;4948123;28;20215;-68
2021/04/11 12:27:02;;;;;;;1.65;1.30;;;;;;;;;;4947014;28;20190;-66
2021/04/11 12:29:29;;;;;;;3.05;1.25;;;;;;;;;;4948791;28;20220;-67
2021/04/11 12:32:14;;;;;;;1.27;1.10;;;;;;;;;;4951460;28;20209;-65
2021/04/11 12:35:09;;;;;;;2.95;1.30;;;;;;;;;;4949231;28;20691;-66
2021/04/11 12:37:56;;;;;;;1.75;1.00;;;;;;;;;;4911064;29;20222;-64
2021/04/11 12:40:29;;;;;;;2.30;1.45;;;;;;;;;;4921495;29;20242;-63
2021/04/11 12:43:01;;;;;;;114.80;5.05;;;;;;;;;;4928502;29;20203;-67
2021/04/11 12:45:29;;;;;;;3.17;1.70;;;;;;;;;;4928512;29;20286;-65
2021/04/11 12:47:55;;;;;;;2.95;1.45;;;;;;;;;;4928391;29;20233;-65
2021/04/11 12:50:26;;;;;;;1.80;1.10;;;;;;;;;;4930659;29;20215;-66
2021/04/11 12:53:05;;;;;;;1.50;1.00;;;;;;;;;;4932402;29;20308;-65
2021/04/11 12:56:00;;;;;;;2.17;1.00;;;;;;;;;;4934823;29;20206;-66
2021/04/11 12:58:29;;;;;;;2.30;1.50;;;;;;;;;;4886353;29;20318;-66
2021/04/11 13:01:14;;;;;;;2.03;1.50;;;;;;;;;;4887927;29;20225;-65
2021/04/11 13:03:46;;;;;;;1.95;0.95;;;;;;;;;;4890219;29;20831;-66
2021/04/11 13:06:15;;;;;;;2.17;1.23;;;;;;;;;;4889268;29;20189;-65
2021/04/11 13:08:50;;;;;;;3.17;0.85;;;;;;;;;;4888638;29;20208;-66
2021/04/11 13:11:27;;;;;;;1.40;0.88;;;;;;;;;;4886381;29;20297;-67
2021/04/11 13:13:53;;;;;;;1.48;0.95;;;;;;;;;;4896140;29;20625;-66
2021/04/11 13:16:22;;;;;;;2.95;1.23;;;;;;;;;;4908098;29;20196;-66
2021/04/11 13:18:56;;;;;;;1.25;0.95;;;;;;;;;;4907647;29;20296;-64
2021/04/11 13:21:22;;;;;;;1.50;1.10;;;;;;;;;;4906574;29;20303;-66
2021/04/11 13:23:54;;;;;;;1.25;1.00;;;;;;;;;;4905896;29;20768;-65
2021/04/11 13:26:33;;;;;;;2.72;1.10;;;;;;;;;;4908919;29;20260;-65
2021/04/11 13:29:04;;;;;;;2.38;1.25;;;;;;;;;;4906900;29;20200;-65
2021/04/11 13:31:43;;;;;;;2.35;1.52;;;;;;;;;;4908015;29;20303;-65
2021/04/11 13:34:21;;;;;;;2.47;1.70;;;;;;;;;;4898161;29;20305;-66
2021/04/11 13:36:48;;;;;;;2.33;1.05;;;;;;;;;;4948753;28;20198;-66
2021/04/11 13:39:22;;;;;;;3.25;1.08;;;;;;;;;;4947854;28;20191;-65
2021/04/11 13:41:48;;;;;;;2.28;1.30;;;;;;;;;;4945484;29;20550;-64
2021/04/11 13:44:17;;;;;;;2.35;1.63;;;;;;;;;;4948404;28;20261;-64
2021/04/11 13:46:43;;;;;;;4.50;1.27;;;;;;;;;;4945936;28;20811;-66
2021/04/11 13:49:25;;;;;;;2.72;1.80;;;;;;;;;;4940885;29;20183;-65
2021/04/11 13:51:57;;;;;;;1.58;1.40;;;;;;;;;;4947185;28;20505;-66
2021/04/11 13:54:41;;;;;;;2.35;1.50;;;;;;;;;;4944491;28;20298;-66
2021/04/11 13:57:31;;;;;;;1.85;1.10;;;;;;;;;;4949169;28;20197;-66
2021/04/11 14:00:06;;;;;;;2.55;1.23;;;;;;;;;;4946711;28;20289;-66
2021/04/11 14:02:32;;;;;;;2.75;1.20;;;;;;;;;;4949796;28;20222;-66
2021/04/11 14:05:12;;;;;;;2.25;0.93;;;;;;;;;;4947928;28;20632;-66
2021/04/11 14:07:41;;;;;;;1.48;0.90;;;;;;;;;;4943112;28;20757;-65
2021/04/11 14:10:07;;;;;;;1.60;1.02;;;;;;;;;;4951120;28;20190;-65
2021/04/11 14:12:46;;;;;;;0.90;0.77;;;;;;;;;;4947979;28;20233;-67
2021/04/11 14:15:14;;;;;;;2.15;1.13;;;;;;;;;;4948327;28;20199;-66
2021/04/11 14:17:55;;;;;;;3.25;1.10;;;;;;;;;;4946496;29;20242;-65
2021/04/11 14:20:21;;;;;;;3.08;1.70;;;;;;;;;;4942129;28;20218;-66
2021/04/11 14:23:06;;;;;;;2.17;1.42;;;;;;;;;;4944953;28;20193;-67
2021/04/11 14:25:36;;;;;;;1.83;1.23;;;;;;;;;;4950253;29;20199;-66
2021/04/11 14:28:04;;;;;;;3.08;1.33;;;;;;;;;;4963851;28;20258;-66
2021/04/11 14:30:34;;;;;;;2.95;1.48;;;;;;;;;;4954063;28;20245;-65
2021/04/11 14:33:00;;;;;;;2.92;1.63;;;;;;;;;;4947288;28;20183;-66
2021/04/11 14:35:55;;;;;;;1.85;1.25;;;;;;;;;;4957096;28;20571;-65
2021/04/11 14:38:43;;;;;;;3.50;1.10;;;;;;;;;;4947015;28;20200;-64
2021/04/11 14:41:11;;;;;;;2.15;1.20;;;;;;;;;;4946348;28;20212;-66
2021/04/11 14:43:46;;;;;;;3.63;1.50;;;;;;;;;;4940766;28;20208;-66
2021/04/11 14:46:12;;;;;;;2.08;1.20;;;;;;;;;;4947076;28;20533;-65
2021/04/11 14:48:39;;;;;;;4.00;1.55;;;;;;;;;;4943404;28;20198;-65
2021/04/11 14:51:08;;;;;;;4.30;1.40;;;;;;;;;;4938294;28;20198;-66
2021/04/11 14:53:40;;;;;;;1.67;1.40;;;;;;;;;;4948075;28;20186;-65
2021/04/11 14:56:11;;;;;;;5.75;1.50;;;;;;;;;;4946477;28;20246;-66
2021/04/11 14:58:40;;;;;;;2.08;1.10;;;;;;;;;;4944956;28;20187;-66
2021/04/11 15:01:11;;;;;;;2.15;1.20;;;;;;;;;;4945956;28;20234;-65
2021/04/11 15:03:40;;;;;;;1.90;1.63;;;;;;;;;;4943432;28;20724;-66
2021/04/11 15:06:25;;;;;;;3.05;1.70;;;;;;;;;;4944445;28;20187;-65
2021/04/11 15:09:20;;;;;;;2.25;1.48;;;;;;;;;;4936742;28;20213;-66
2021/04/11 15:11:54;;;;;;;3.67;1.75;;;;;;;;;;4958830;28;20224;-65
2021/04/11 15:14:35;;;;;;;4.30;1.27;;;;;;;;;;4943554;28;20195;-64
2021/04/11 15:17:08;;;;;;;3.53;1.75;;;;;;;;;;4945416;28;20613;-66